Airfield :
LOGIN :

Register | Disclaimer

   EN    FR    IT 

 










Legend :    VFR   Marginal VFR   IFR   Intensive IFR   Very Intensive IFR
Visi :
Ceiling :
>= 8 km
>= 3000ft
5 to 8 km
1000 to 3000 ft
1500m to 5 km
500 to 1000 ft
800 to 1500m
200 to 500 ft
< 800m
< 200 ft
Symbols :   Thunderstorms  Fog  Heavy snow  Heavy precipitations  Wind > 20 kt
SIGMETs :     Misc.  Thunderstorms  Icing  Turbulence  Mountain Waves  Volcanic Ashes






- Airport Elevation : 160 ft
- IATA code : FMO


EDDG - Münster Osnabrück Int.

CURRENT METAR :
  • 211020Z AUTO 21011KT 150V260 9999 +SHRA SCT026 BKN034 FEW///CB 25/21 Q1007 TEMPO TSRA

EXPIRED METARs :
  • 210950Z AUTO 21007KT 160V240 9999 VCSH FEW///CB 27/19 Q1007 TEMPO 23012KT 4000 SHRA
  • 210920Z AUTO 20004KT 100V260 CAVOK 27/19 Q1007 NOSIG
  • 210850Z AUTO 17005KT 110V220 CAVOK 27/19 Q1006 NOSIG
  • 210820Z AUTO 20005KT 120V280 CAVOK 27/18 Q1006 NOSIG
  • 210750Z AUTO 18004KT 110V230 CAVOK 26/19 Q1006 NOSIG
  • 210720Z AUTO 17003KT 120V230 CAVOK 25/18 Q1006 NOSIG
  • 210650Z AUTO 14003KT 090V180 CAVOK 24/18 Q1006 NOSIG
  • 210620Z AUTO VRB01KT CAVOK 23/18 Q1006 NOSIG
  • 210550Z AUTO VRB01KT CAVOK 23/17 Q1006 NOSIG

TAF TAF EDDG
Valid from the 21 at 06:00 until the 22 at 06:00 UTC


210500Z 2106/2206 23004KT CAVOK
TEMPO 2109/2120 SHRA BKN040CB
PROB30
TEMPO 2110/2118 29012KT 4000 TSRA BKN020CB
BECMG 2111/2114 29005KT
BECMG 2122/2124 BKN012
TEMPO 2200/2206 4000 BR BKN007



MET'MAP, your aeronautical weather chart ! - Copyright ORBIFLY December 2007 - Disclaimer

ORBIFLY MET'MAP TEAM :

Programming & Development : Alexandra Zaïnal
Original concept : Baudouin d'Aumeries
Technical & hardware support : Manuel Goepfert
Assistance : Marc-Olivier Méhu




SOURCES & CREDITS :

   NOAA